Time;durP1;ratioP1;P1;durP2;ratioP2;P2;SDS_P1;SDS_P2;PMS_P1;PMS_P2;Temp;Humidity;BMP_temperature;BMP_pressure;BME280_temperature;BME280_humidity;BME280_pressure;Samples;Min_cycle;Max_cycle;Signal;HPM_P1;HPM_P2
2023/07/24 00:02:20;;;;;;;5.70;2.97;;;;;;;;;;5012948;28;20037;-71
2023/07/24 00:04:45;;;;;;;8.38;2.92;;;;;;;;;;5011695;28;20104;-71
2023/07/24 00:07:10;;;;;;;7.53;4.10;;;;;;;;;;5010399;28;20052;-71
2023/07/24 00:09:35;;;;;;;8.83;3.83;;;;;;;;;;5014019;28;20018;-71
2023/07/24 00:12:00;;;;;;;5.73;2.73;;;;;;;;;;5012005;28;20291;-71
2023/07/24 00:14:25;;;;;;;3.80;2.40;;;;;;;;;;5012319;28;20021;-71
2023/07/24 00:16:51;;;;;;;6.87;3.10;;;;;;;;;;5013373;28;20034;-72
2023/07/24 00:19:16;;;;;;;4.17;2.60;;;;;;;;;;5013923;28;20288;-72
2023/07/24 00:21:41;;;;;;;7.00;3.40;;;;;;;;;;5011073;28;20369;-72
2023/07/24 00:24:06;;;;;;;6.03;2.43;;;;;;;;;;5012428;28;20742;-71
2023/07/24 00:26:31;;;;;;;4.20;2.40;;;;;;;;;;5012745;28;20269;-72
2023/07/24 00:28:56;;;;;;;9.23;2.97;;;;;;;;;;5010823;28;20264;-72
2023/07/24 00:31:22;;;;;;;5.87;2.70;;;;;;;;;;5012252;28;20869;-71
2023/07/24 00:33:47;;;;;;;6.67;2.93;;;;;;;;;;5012767;28;20037;-71
2023/07/24 00:36:12;;;;;;;9.50;3.27;;;;;;;;;;5012913;28;20253;-71
2023/07/24 00:38:37;;;;;;;4.60;3.00;;;;;;;;;;5012551;28;20494;-72
2023/07/24 00:41:02;;;;;;;6.07;3.20;;;;;;;;;;5009715;28;20304;-71
2023/07/24 00:43:27;;;;;;;5.53;3.00;;;;;;;;;;5005408;28;20133;-71
2023/07/24 00:45:54;;;;;;;8.20;3.47;;;;;;;;;;5010697;28;20272;-71
2023/07/24 00:48:19;;;;;;;5.18;2.80;;;;;;;;;;5013024;28;20277;-71
2023/07/24 00:50:45;;;;;;;6.35;2.45;;;;;;;;;;5013137;28;20058;-71
2023/07/24 00:53:11;;;;;;;5.30;3.35;;;;;;;;;;5011317;28;20030;-72
2023/07/24 00:55:36;;;;;;;7.10;3.85;;;;;;;;;;5008305;28;20049;-71
2023/07/24 00:58:02;;;;;;;4.22;2.83;;;;;;;;;;5010898;28;20018;-71
2023/07/24 01:00:27;;;;;;;6.15;2.72;;;;;;;;;;5012140;28;20036;-71
2023/07/24 01:02:53;;;;;;;12.90;3.63;;;;;;;;;;5012732;28;20093;-72
2023/07/24 01:05:19;;;;;;;5.47;2.72;;;;;;;;;;5006252;28;20025;-71
2023/07/24 01:07:45;;;;;;;5.32;3.05;;;;;;;;;;5012327;28;20110;-71
2023/07/24 01:10:10;;;;;;;7.67;2.83;;;;;;;;;;5009180;28;20086;-71
2023/07/24 01:12:38;;;;;;;5.60;3.10;;;;;;;;;;5012552;28;20318;-71
2023/07/24 01:15:14;;;;;;;5.05;2.13;;;;;;;;;;5011311;28;20533;-71
2023/07/24 01:17:41;;;;;;;4.97;2.65;;;;;;;;;;5011868;28;20402;-71
2023/07/24 01:20:08;;;;;;;5.15;3.20;;;;;;;;;;5007953;28;20076;-71
2023/07/24 01:22:39;;;;;;;5.15;2.60;;;;;;;;;;5008000;28;20022;-71
2023/07/24 01:25:09;;;;;;;6.00;2.95;;;;;;;;;;5009122;28;20117;-71
2023/07/24 01:27:35;;;;;;;5.68;2.92;;;;;;;;;;5010542;28;20056;-71
2023/07/24 01:30:00;;;;;;;7.03;3.17;;;;;;;;;;5012158;28;20018;-71
2023/07/24 01:32:25;;;;;;;4.97;2.72;;;;;;;;;;5009412;28;20272;-71
2023/07/24 01:34:53;;;;;;;6.82;3.08;;;;;;;;;;5007437;28;20057;-71
2023/07/24 01:37:19;;;;;;;10.88;3.30;;;;;;;;;;5010139;28;20545;-71
2023/07/24 01:39:45;;;;;;;6.40;2.85;;;;;;;;;;5008433;28;20029;-71
2023/07/24 01:42:10;;;;;;;5.43;2.72;;;;;;;;;;5010211;28;20083;-71
2023/07/24 01:44:35;;;;;;;7.65;3.13;;;;;;;;;;5010064;28;20374;-71
2023/07/24 01:47:00;;;;;;;6.80;2.97;;;;;;;;;;5011332;28;20020;-71
2023/07/24 01:49:26;;;;;;;6.33;2.80;;;;;;;;;;5010011;28;20355;-71
2023/07/24 01:51:51;;;;;;;6.97;3.50;;;;;;;;;;5009826;28;20280;-71
2023/07/24 01:54:16;;;;;;;5.67;2.97;;;;;;;;;;5009048;28;20280;-71
2023/07/24 01:56:41;;;;;;;5.43;2.67;;;;;;;;;;5011556;28;20256;-71
2023/07/24 01:59:06;;;;;;;7.60;3.17;;;;;;;;;;5010181;28;20637;-71
2023/07/24 02:01:31;;;;;;;5.03;2.67;;;;;;;;;;5010953;28;20360;-72
2023/07/24 02:03:57;;;;;;;6.53;3.25;;;;;;;;;;5009456;28;20018;-71
2023/07/24 02:06:22;;;;;;;9.57;2.53;;;;;;;;;;4992492;28;20064;-71
2023/07/24 02:08:48;;;;;;;7.53;3.03;;;;;;;;;;5011584;28;20014;-71
2023/07/24 02:11:14;;;;;;;3.05;1.60;;;;;;;;;;5010705;28;20029;-71
2023/07/24 02:13:39;;;;;;;4.32;2.28;;;;;;;;;;5010794;28;20025;-71
2023/07/24 02:16:04;;;;;;;6.03;1.80;;;;;;;;;;5007650;28;20459;-71
2023/07/24 02:18:29;;;;;;;5.13;2.63;;;;;;;;;;5010799;28;20326;-71
2023/07/24 02:20:54;;;;;;;5.72;2.95;;;;;;;;;;5009853;28;20029;-72
2023/07/24 02:23:20;;;;;;;6.33;2.80;;;;;;;;;;5011308;28;20517;-71
2023/07/24 02:25:45;;;;;;;7.60;2.90;;;;;;;;;;5009455;28;20359;-71
2023/07/24 02:28:10;;;;;;;13.37;2.93;;;;;;;;;;5011266;28;20018;-71
2023/07/24 02:30:39;;;;;;;6.03;3.25;;;;;;;;;;5009615;28;20265;-71
2023/07/24 02:33:04;;;;;;;3.97;2.08;;;;;;;;;;5008215;28;20079;-71
2023/07/24 02:35:29;;;;;;;7.80;2.53;;;;;;;;;;5008724;28;20109;-71
2023/07/24 02:37:54;;;;;;;5.10;2.93;;;;;;;;;;5011193;28;20044;-71
2023/07/24 02:40:20;;;;;;;3.00;1.80;;;;;;;;;;5009991;28;20292;-71
2023/07/24 02:42:45;;;;;;;5.87;3.00;;;;;;;;;;5009731;28;20030;-71
2023/07/24 02:45:10;;;;;;;8.20;3.00;;;;;;;;;;5009984;28;20047;-71
2023/07/24 02:47:36;;;;;;;7.68;3.30;;;;;;;;;;5008596;28;20634;-71
2023/07/24 02:50:01;;;;;;;8.43;3.35;;;;;;;;;;5009443;28;20072;-70
2023/07/24 02:52:26;;;;;;;9.80;3.47;;;;;;;;;;5007377;28;21557;-71
2023/07/24 02:54:51;;;;;;;9.67;2.87;;;;;;;;;;5010746;28;20327;-71
2023/07/24 02:57:17;;;;;;;3.38;2.00;;;;;;;;;;5010529;28;20344;-71
2023/07/24 02:59:42;;;;;;;9.63;3.57;;;;;;;;;;5009476;28;20060;-71
2023/07/24 03:02:07;;;;;;;5.37;3.00;;;;;;;;;;5008162;28;20296;-71
2023/07/24 03:04:32;;;;;;;8.57;3.88;;;;;;;;;;5008850;28;20330;-71
2023/07/24 03:06:57;;;;;;;7.35;3.10;;;;;;;;;;5010361;28;20025;-70
2023/07/24 03:09:22;;;;;;;5.63;3.60;;;;;;;;;;5010757;28;20263;-71
2023/07/24 03:11:48;;;;;;;8.60;3.47;;;;;;;;;;5009606;28;20034;-71
2023/07/24 03:14:13;;;;;;;7.37;3.60;;;;;;;;;;5009119;28;20295;-71
2023/07/24 03:16:38;;;;;;;9.65;3.63;;;;;;;;;;5009379;28;20030;-71
2023/07/24 03:19:03;;;;;;;7.20;3.70;;;;;;;;;;5008555;28;20441;-71
2023/07/24 03:21:28;;;;;;;7.83;3.30;;;;;;;;;;5009585;28;20041;-70
2023/07/24 03:23:54;;;;;;;7.00;4.23;;;;;;;;;;5008306;28;20367;-71
2023/07/24 03:26:19;;;;;;;6.77;3.33;;;;;;;;;;5010548;28;20737;-70
2023/07/24 03:28:44;;;;;;;6.53;3.37;;;;;;;;;;5008748;28;20032;-70
2023/07/24 03:31:09;;;;;;;8.80;3.53;;;;;;;;;;5008899;28;20277;-71
2023/07/24 03:33:35;;;;;;;7.17;3.03;;;;;;;;;;5004873;28;20798;-70
2023/07/24 03:36:00;;;;;;;6.35;3.20;;;;;;;;;;5002353;28;20894;-70
2023/07/24 03:38:25;;;;;;;10.17;3.80;;;;;;;;;;5006431;28;20418;-71
2023/07/24 03:40:50;;;;;;;8.90;3.77;;;;;;;;;;5007878;28;20599;-70
2023/07/24 03:43:15;;;;;;;7.83;3.37;;;;;;;;;;5007720;28;20022;-70
2023/07/24 03:45:42;;;;;;;9.33;3.50;;;;;;;;;;5009488;28;20152;-71
2023/07/24 03:48:07;;;;;;;8.27;3.78;;;;;;;;;;5006624;28;20273;-70
2023/07/24 03:50:32;;;;;;;10.03;4.03;;;;;;;;;;4993336;28;20045;-70
2023/07/24 03:52:57;;;;;;;9.30;3.13;;;;;;;;;;5006861;28;20109;-70
2023/07/24 03:55:22;;;;;;;6.53;3.65;;;;;;;;;;5008724;28;20746;-70
2023/07/24 03:57:48;;;;;;;6.83;3.73;;;;;;;;;;5008709;28;20017;-70
2023/07/24 04:00:13;;;;;;;8.10;3.42;;;;;;;;;;5007642;28;20861;-70
2023/07/24 04:02:39;;;;;;;6.20;3.30;;;;;;;;;;5007310;28;20034;-70
2023/07/24 04:05:05;;;;;;;10.63;4.95;;;;;;;;;;5010053;28;20895;-70
2023/07/24 04:07:30;;;;;;;9.38;4.00;;;;;;;;;;5009972;28;20042;-71
2023/07/24 04:09:55;;;;;;;11.70;3.92;;;;;;;;;;5007249;28;20017;-71
2023/07/24 04:12:20;;;;;;;8.23;3.67;;;;;;;;;;5006646;28;20637;-70
2023/07/24 04:14:45;;;;;;;10.13;3.03;;;;;;;;;;5009837;28;20045;-70
2023/07/24 04:17:11;;;;;;;7.97;4.20;;;;;;;;;;5008699;28;20299;-70
2023/07/24 04:19:36;;;;;;;16.00;4.13;;;;;;;;;;5008638;28;20389;-70
2023/07/24 04:22:01;;;;;;;8.00;4.15;;;;;;;;;;5006663;28;20034;-70
2023/07/24 04:24:26;;;;;;;10.30;3.83;;;;;;;;;;5008993;28;20018;-70
2023/07/24 04:26:51;;;;;;;7.13;3.83;;;;;;;;;;5008483;28;20368;-70
2023/07/24 04:29:16;;;;;;;7.57;3.53;;;;;;;;;;5008571;28;20265;-70
2023/07/24 04:31:42;;;;;;;8.40;3.87;;;;;;;;;;5011840;28;20029;-70
2023/07/24 04:34:07;;;;;;;10.10;3.83;;;;;;;;;;5009248;28;20041;-70
2023/07/24 04:36:32;;;;;;;11.67;3.87;;;;;;;;;;5009797;28;20076;-70
2023/07/24 04:38:57;;;;;;;8.40;3.80;;;;;;;;;;5012290;28;20337;-70
2023/07/24 04:41:22;;;;;;;10.40;4.40;;;;;;;;;;5011756;28;20295;-71
2023/07/24 04:43:47;;;;;;;11.10;5.30;;;;;;;;;;5008652;28;20018;-70
2023/07/24 04:46:13;;;;;;;11.93;3.50;;;;;;;;;;5012497;28;20014;-70
2023/07/24 04:48:38;;;;;;;10.37;3.80;;;;;;;;;;5011044;28;20673;-70
2023/07/24 04:51:03;;;;;;;9.18;3.53;;;;;;;;;;5010592;28;20368;-71
2023/07/24 04:53:28;;;;;;;7.90;3.67;;;;;;;;;;5008055;28;20101;-70
2023/07/24 04:55:53;;;;;;;5.97;3.25;;;;;;;;;;5010661;28;20256;-70
2023/07/24 04:58:19;;;;;;;10.60;3.57;;;;;;;;;;5009924;28;20083;-70
2023/07/24 05:00:44;;;;;;;11.63;4.15;;;;;;;;;;5010881;28;20034;-71
2023/07/24 05:03:11;;;;;;;9.50;3.87;;;;;;;;;;4999385;28;20409;-70
2023/07/24 05:05:36;;;;;;;8.90;3.70;;;;;;;;;;5007582;28;20042;-70
2023/07/24 05:08:02;;;;;;;5.68;2.60;;;;;;;;;;5009563;28;20450;-70
2023/07/24 05:10:27;;;;;;;4.40;2.33;;;;;;;;;;5007818;28;20030;-70
2023/07/24 05:12:52;;;;;;;10.13;3.93;;;;;;;;;;5008651;28;20697;-70
2023/07/24 05:15:17;;;;;;;15.03;4.33;;;;;;;;;;5010017;28;20300;-70
2023/07/24 05:17:43;;;;;;;7.38;3.40;;;;;;;;;;5010797;28;20339;-70
2023/07/24 05:20:08;;;;;;;9.27;2.85;;;;;;;;;;5010317;28;20084;-70
2023/07/24 05:22:34;;;;;;;11.20;3.88;;;;;;;;;;5001149;28;20105;-70
2023/07/24 05:24:59;;;;;;;2.30;1.47;;;;;;;;;;5006770;28;20476;-69
2023/07/24 05:27:24;;;;;;;9.33;4.13;;;;;;;;;;5011619;28;20257;-70
2023/07/24 05:29:49;;;;;;;12.63;4.28;;;;;;;;;;5009245;28;20022;-70
2023/07/24 05:32:14;;;;;;;8.47;3.83;;;;;;;;;;5010755;28;20487;-70
2023/07/24 05:34:39;;;;;;;6.60;3.70;;;;;;;;;;5010124;28;20292;-70
2023/07/24 05:37:05;;;;;;;6.07;3.20;;;;;;;;;;5007811;28;20276;-70
2023/07/24 05:39:30;;;;;;;8.38;3.70;;;;;;;;;;5006425;28;20540;-70
2023/07/24 05:41:55;;;;;;;9.60;4.25;;;;;;;;;;5008729;28;20014;-70
2023/07/24 05:44:20;;;;;;;8.33;4.13;;;;;;;;;;5008633;28;20049;-70
2023/07/24 05:46:46;;;;;;;8.30;3.70;;;;;;;;;;5011302;28;20765;-70
2023/07/24 05:49:11;;;;;;;6.87;3.50;;;;;;;;;;5011874;28;20014;-70
2023/07/24 05:51:36;;;;;;;9.20;4.07;;;;;;;;;;5006925;28;20086;-70
2023/07/24 05:54:01;;;;;;;12.60;4.20;;;;;;;;;;5009679;28;20276;-70
2023/07/24 05:56:26;;;;;;;10.20;4.53;;;;;;;;;;5009823;28;20418;-70
2023/07/24 05:58:51;;;;;;;8.47;4.30;;;;;;;;;;5004865;28;20040;-70
2023/07/24 06:01:17;;;;;;;6.27;3.60;;;;;;;;;;5003124;28;20292;-70
2023/07/24 06:03:42;;;;;;;10.17;4.37;;;;;;;;;;5005731;28;20268;-70
2023/07/24 06:06:07;;;;;;;9.50;3.30;;;;;;;;;;5010294;28;20022;-70
2023/07/24 06:08:32;;;;;;;10.67;4.43;;;;;;;;;;5007899;28;20277;-70
2023/07/24 06:10:57;;;;;;;8.57;4.22;;;;;;;;;;5009428;28;20587;-70
2023/07/24 06:13:23;;;;;;;8.07;4.60;;;;;;;;;;5010286;28;20475;-69
2023/07/24 06:15:48;;;;;;;12.05;3.65;;;;;;;;;;5006911;28;20272;-70
2023/07/24 06:18:14;;;;;;;5.30;3.05;;;;;;;;;;4987196;28;20050;-69
2023/07/24 06:20:39;;;;;;;10.35;4.93;;;;;;;;;;5009037;28;20036;-70
2023/07/24 06:23:04;;;;;;;8.15;4.00;;;;;;;;;;5005166;28;20051;-69
2023/07/24 06:25:30;;;;;;;7.87;3.47;;;;;;;;;;5004997;28;20076;-70
2023/07/24 06:27:55;;;;;;;10.05;4.35;;;;;;;;;;5005983;28;20261;-70
2023/07/24 06:30:21;;;;;;;12.90;4.27;;;;;;;;;;5007708;28;20032;-70
2023/07/24 06:32:46;;;;;;;11.43;4.63;;;;;;;;;;5008181;28;20272;-70
2023/07/24 06:35:11;;;;;;;8.80;3.90;;;;;;;;;;5008417;28;20781;-69
2023/07/24 06:37:36;;;;;;;8.60;3.87;;;;;;;;;;5008894;28;20052;-70
2023/07/24 06:40:01;;;;;;;9.30;4.20;;;;;;;;;;5010022;28;20348;-70
2023/07/24 06:42:27;;;;;;;8.55;3.70;;;;;;;;;;5010070;28;20017;-70
2023/07/24 06:44:52;;;;;;;6.30;3.30;;;;;;;;;;5007602;28;20022;-70
2023/07/24 06:47:17;;;;;;;6.93;3.63;;;;;;;;;;5007008;28;20285;-70
2023/07/24 06:49:42;;;;;;;7.37;3.10;;;;;;;;;;5007655;28;20352;-69
2023/07/24 06:52:07;;;;;;;6.43;3.40;;;;;;;;;;5008523;28;20021;-69
2023/07/24 06:54:33;;;;;;;5.60;3.07;;;;;;;;;;5008093;28;20273;-69
2023/07/24 06:56:58;;;;;;;6.85;3.30;;;;;;;;;;5006252;28;20316;-69
2023/07/24 06:59:23;;;;;;;6.87;3.30;;;;;;;;;;5006910;28;20034;-70
2023/07/24 07:01:48;;;;;;;11.75;3.40;;;;;;;;;;5004462;28;20288;-69
2023/07/24 07:04:13;;;;;;;9.60;3.33;;;;;;;;;;5008816;28;20152;-69
2023/07/24 07:06:38;;;;;;;9.03;3.80;;;;;;;;;;5007535;28;20029;-70
2023/07/24 07:09:04;;;;;;;6.30;3.07;;;;;;;;;;5006476;28;20056;-70
2023/07/24 07:11:29;;;;;;;6.60;2.97;;;;;;;;;;5008554;28;20022;-70
2023/07/24 07:13:55;;;;;;;6.50;2.75;;;;;;;;;;5005932;28;20048;-70
2023/07/24 07:16:20;;;;;;;7.40;3.00;;;;;;;;;;5004541;28;20045;-70
2023/07/24 07:18:45;;;;;;;5.68;2.95;;;;;;;;;;5003458;28;20276;-70
2023/07/24 07:21:10;;;;;;;5.97;2.87;;;;;;;;;;5003263;28;20036;-70
2023/07/24 07:23:35;;;;;;;4.27;1.93;;;;;;;;;;5003964;28;20045;-70
2023/07/24 07:26:01;;;;;;;7.10;2.70;;;;;;;;;;5007953;28;20026;-70
2023/07/24 07:28:27;;;;;;;5.40;2.30;;;;;;;;;;5008099;28;20025;-70
2023/07/24 07:30:53;;;;;;;5.77;2.70;;;;;;;;;;5005906;28;20452;-69
2023/07/24 07:33:21;;;;;;;6.22;2.70;;;;;;;;;;5007863;28;20291;-70
2023/07/24 07:35:46;;;;;;;5.00;2.28;;;;;;;;;;5007490;28;20120;-70
2023/07/24 07:38:11;;;;;;;8.00;3.30;;;;;;;;;;5008161;28;20558;-70
2023/07/24 07:40:37;;;;;;;5.27;2.73;;;;;;;;;;5008386;28;20018;-69
2023/07/24 07:43:02;;;;;;;4.57;2.70;;;;;;;;;;5009244;28;20479;-70
2023/07/24 07:45:27;;;;;;;5.13;2.67;;;;;;;;;;5009142;28;20445;-70
2023/07/24 07:47:53;;;;;;;4.82;2.55;;;;;;;;;;5006617;28;20025;-72
2023/07/24 07:50:18;;;;;;;6.93;2.70;;;;;;;;;;5008604;28;20041;-70
2023/07/24 07:52:44;;;;;;;5.80;2.37;;;;;;;;;;5007394;28;20093;-70
2023/07/24 07:55:09;;;;;;;6.90;2.70;;;;;;;;;;5006170;28;20038;-70
2023/07/24 07:57:35;;;;;;;5.68;2.70;;;;;;;;;;5005650;28;20489;-70
2023/07/24 08:00:01;;;;;;;5.88;2.20;;;;;;;;;;5004116;28;20023;-70
2023/07/24 08:02:26;;;;;;;4.93;2.97;;;;;;;;;;5008880;28;20018;-70
2023/07/24 08:04:51;;;;;;;4.33;2.33;;;;;;;;;;5010026;28;20418;-70
2023/07/24 08:07:16;;;;;;;4.97;2.70;;;;;;;;;;5011973;28;20097;-70
2023/07/24 08:09:41;;;;;;;4.90;2.63;;;;;;;;;;5005988;28;20092;-70
2023/07/24 08:12:07;;;;;;;4.67;2.80;;;;;;;;;;5001516;28;20773;-70
2023/07/24 08:14:32;;;;;;;4.72;2.42;;;;;;;;;;5006226;28;20318;-70
2023/07/24 08:16:57;;;;;;;5.18;2.92;;;;;;;;;;5006827;28;20017;-70
2023/07/24 08:19:22;;;;;;;4.80;2.67;;;;;;;;;;5007404;28;20022;-70
2023/07/24 08:21:47;;;;;;;7.50;2.70;;;;;;;;;;5010153;28;20021;-70
2023/07/24 08:24:13;;;;;;;5.40;2.40;;;;;;;;;;5011832;28;20033;-70
2023/07/24 08:26:38;;;;;;;4.17;2.40;;;;;;;;;;5012324;28;20300;-70
2023/07/24 08:29:03;;;;;;;5.50;2.80;;;;;;;;;;5004667;28;20309;-70
2023/07/24 08:31:29;;;;;;;6.38;2.90;;;;;;;;;;5010692;28;20117;-70
2023/07/24 08:33:54;;;;;;;5.28;3.05;;;;;;;;;;5011808;28;20034;-70
2023/07/24 08:36:19;;;;;;;4.53;2.80;;;;;;;;;;5011012;28;20025;-70
2023/07/24 08:38:45;;;;;;;4.70;2.60;;;;;;;;;;5006081;28;20037;-70
2023/07/24 08:41:11;;;;;;;5.27;2.77;;;;;;;;;;5010766;28;20045;-71
2023/07/24 08:43:36;;;;;;;7.93;2.55;;;;;;;;;;5012079;28;20269;-70
2023/07/24 08:46:02;;;;;;;5.43;2.92;;;;;;;;;;4994720;28;20507;-70
2023/07/24 08:48:37;;;;;;;4.88;2.42;;;;;;;;;;5009699;28;20091;-70
2023/07/24 08:51:04;;;;;;;6.10;2.97;;;;;;;;;;5010654;28;20030;-71
2023/07/24 08:53:30;;;;;;;5.07;2.90;;;;;;;;;;5009843;28;20384;-71
2023/07/24 08:55:55;;;;;;;5.28;2.40;;;;;;;;;;5010653;28;20026;-71
2023/07/24 08:58:21;;;;;;;6.10;2.55;;;;;;;;;;5011534;28;20018;-71
2023/07/24 09:00:46;;;;;;;5.33;2.87;;;;;;;;;;5010730;28;20029;-71
2023/07/24 09:03:11;;;;;;;6.13;2.87;;;;;;;;;;5007142;28;20281;-70
2023/07/24 09:05:36;;;;;;;8.67;3.53;;;;;;;;;;5011282;28;20268;-71
2023/07/24 09:08:02;;;;;;;4.18;2.53;;;;;;;;;;5010881;28;20268;-71
2023/07/24 09:10:27;;;;;;;6.95;3.05;;;;;;;;;;5009800;28;20022;-71
2023/07/24 09:12:52;;;;;;;4.85;2.60;;;;;;;;;;5005119;28;20022;-71
2023/07/24 09:15:18;;;;;;;5.03;2.67;;;;;;;;;;5007851;28;20026;-71
2023/07/24 09:17:50;;;;;;;5.03;2.38;;;;;;;;;;5010469;28;20026;-71
2023/07/24 09:20:15;;;;;;;6.53;2.90;;;;;;;;;;5009445;28;20080;-71
2023/07/24 09:22:47;;;;;;;6.13;2.58;;;;;;;;;;5008501;28;20383;-71
2023/07/24 09:25:13;;;;;;;5.53;2.67;;;;;;;;;;5005452;28;20092;-71
2023/07/24 09:27:38;;;;;;;6.90;2.70;;;;;;;;;;5005406;28;20097;-71
2023/07/24 09:30:11;;;;;;;7.80;3.13;;;;;;;;;;5009635;28;20349;-71
2023/07/24 09:32:37;;;;;;;4.07;2.45;;;;;;;;;;5007363;28;20284;-71
2023/07/24 09:35:03;;;;;;;4.75;2.67;;;;;;;;;;5006689;28;20387;-71
2023/07/24 09:37:32;;;;;;;4.90;2.80;;;;;;;;;;5009755;28;20014;-71
2023/07/24 09:39:57;;;;;;;5.07;2.70;;;;;;;;;;5007478;28;20034;-71
2023/07/24 09:42:29;;;;;;;11.33;2.70;;;;;;;;;;5008408;28;20037;-71
2023/07/24 09:44:54;;;;;;;4.63;2.78;;;;;;;;;;5005884;28;20030;-71
2023/07/24 09:47:19;;;;;;;7.43;2.57;;;;;;;;;;5007822;28;20021;-71
2023/07/24 09:49:45;;;;;;;5.17;2.47;;;;;;;;;;5009379;28;20775;-71
2023/07/24 09:52:11;;;;;;;4.13;2.10;;;;;;;;;;5008197;28;20040;-71
2023/07/24 09:54:41;;;;;;;5.68;2.30;;;;;;;;;;5008457;28;20052;-71
2023/07/24 09:57:07;;;;;;;3.47;2.20;;;;;;;;;;5007636;28;20171;-71
2023/07/24 09:59:32;;;;;;;3.38;2.20;;;;;;;;;;5007984;28;20037;-71
2023/07/24 10:01:58;;;;;;;4.68;2.38;;;;;;;;;;5009405;28;20022;-71
2023/07/24 10:04:24;;;;;;;3.70;1.98;;;;;;;;;;5008501;28;20018;-71
2023/07/24 10:06:50;;;;;;;5.28;2.17;;;;;;;;;;5005445;28;20026;-71
2023/07/24 10:09:15;;;;;;;4.53;1.90;;;;;;;;;;5009534;28;20033;-71
2023/07/24 10:11:40;;;;;;;7.25;2.20;;;;;;;;;;5009131;28;20030;-71
2023/07/24 10:14:06;;;;;;;2.67;1.48;;;;;;;;;;5006094;28;20015;-71
2023/07/24 10:16:32;;;;;;;3.75;2.10;;;;;;;;;;5005270;28;20026;-71
2023/07/24 10:18:57;;;;;;;5.30;2.15;;;;;;;;;;5008339;28;20036;-71
2023/07/24 10:21:27;;;;;;;5.57;2.45;;;;;;;;;;5008071;28;20044;-72
2023/07/24 10:23:52;;;;;;;8.02;2.25;;;;;;;;;;5005187;28;20022;-72
2023/07/24 10:26:23;;;;;;;4.30;1.83;;;;;;;;;;5006815;28;20084;-71
2023/07/24 10:28:50;;;;;;;3.22;1.98;;;;;;;;;;4988393;28;20076;-72
2023/07/24 10:31:20;;;;;;;4.45;2.65;;;;;;;;;;5005865;28;20458;-71
2023/07/24 10:33:46;;;;;;;3.28;2.10;;;;;;;;;;5008840;28;20040;-71
2023/07/24 10:36:13;;;;;;;5.05;2.05;;;;;;;;;;5004541;28;20471;-67
2023/07/24 10:38:42;;;;;;;5.82;2.22;;;;;;;;;;5005829;28;20049;-71
2023/07/24 10:41:08;;;;;;;4.53;2.20;;;;;;;;;;5008957;28;20492;-71
2023/07/24 10:43:40;;;;;;;4.43;2.17;;;;;;;;;;5007208;28;20050;-71
2023/07/24 10:46:05;;;;;;;3.95;2.33;;;;;;;;;;5009138;28;20045;-71
2023/07/24 10:48:30;;;;;;;5.37;2.90;;;;;;;;;;5008043;28;20018;-71
2023/07/24 10:50:55;;;;;;;7.97;2.30;;;;;;;;;;5008257;28;20331;-71
2023/07/24 10:53:21;;;;;;;9.80;3.17;;;;;;;;;;5005726;28;20036;-71
2023/07/24 10:55:47;;;;;;;4.25;2.08;;;;;;;;;;5006420;28;20041;-71
2023/07/24 10:58:13;;;;;;;7.10;2.53;;;;;;;;;;5007692;28;20021;-71
2023/07/24 11:00:38;;;;;;;5.35;2.17;;;;;;;;;;5007483;28;20030;-71
2023/07/24 11:03:04;;;;;;;4.55;1.95;;;;;;;;;;5008814;28;20407;-72
2023/07/24 11:05:29;;;;;;;5.97;2.63;;;;;;;;;;5008321;28;20470;-72
2023/07/24 11:07:54;;;;;;;4.63;2.33;;;;;;;;;;5009826;28;20333;-72
2023/07/24 11:10:22;;;;;;;5.13;2.55;;;;;;;;;;5008526;28;20307;-72
2023/07/24 11:12:48;;;;;;;4.40;2.47;;;;;;;;;;5009414;28;20014;-72
2023/07/24 11:15:13;;;;;;;4.28;2.30;;;;;;;;;;5007545;28;20022;-72
2023/07/24 11:17:40;;;;;;;5.13;2.65;;;;;;;;;;5008845;28;20048;-72
2023/07/24 11:20:06;;;;;;;4.88;2.47;;;;;;;;;;5007095;28;20052;-72
2023/07/24 11:22:32;;;;;;;6.15;2.42;;;;;;;;;;5006764;28;20128;-72
2023/07/24 11:24:57;;;;;;;6.00;2.60;;;;;;;;;;5007752;28;20489;-72
2023/07/24 11:27:24;;;;;;;4.40;2.63;;;;;;;;;;5009498;28;20076;-73
2023/07/24 11:29:50;;;;;;;3.83;1.88;;;;;;;;;;5006901;28;20022;-72
2023/07/24 11:32:19;;;;;;;5.27;2.00;;;;;;;;;;5007867;28;20498;-72
2023/07/24 11:34:44;;;;;;;4.63;2.10;;;;;;;;;;5008438;28;20415;-72
2023/07/24 11:37:10;;;;;;;7.30;2.70;;;;;;;;;;5008616;28;20117;-72
2023/07/24 11:39:35;;;;;;;4.55;2.88;;;;;;;;;;5011306;28;20429;-72
2023/07/24 11:42:01;;;;;;;5.55;2.60;;;;;;;;;;5014057;28;20100;-72
2023/07/24 11:44:29;;;;;;;6.47;2.53;;;;;;;;;;5005319;28;20029;-72
2023/07/24 11:47:00;;;;;;;7.10;2.67;;;;;;;;;;5010757;28;20030;-72
2023/07/24 11:49:25;;;;;;;12.95;3.85;;;;;;;;;;5009015;28;20434;-71
2023/07/24 11:51:51;;;;;;;11.95;3.67;;;;;;;;;;5013038;28;20037;-71
2023/07/24 11:54:16;;;;;;;15.55;3.85;;;;;;;;;;5009773;28;20022;-71
2023/07/24 11:56:41;;;;;;;10.32;4.53;;;;;;;;;;5012058;28;20022;-72
2023/07/24 11:59:13;;;;;;;5.35;2.80;;;;;;;;;;5009613;28;20026;-70
2023/07/24 12:01:38;;;;;;;6.72;2.40;;;;;;;;;;5005427;28;20026;-71
2023/07/24 12:04:03;;;;;;;4.70;1.70;;;;;;;;;;5010308;28;20029;-71
2023/07/24 12:06:30;;;;;;;9.02;2.17;;;;;;;;;;5010425;28;20022;-70
2023/07/24 12:09:01;;;;;;;3.92;1.40;;;;;;;;;;5008656;28;20030;-71
2023/07/24 12:11:26;;;;;;;4.15;1.65;;;;;;;;;;5010715;28;20040;-72
2023/07/24 12:13:53;;;;;;;5.30;1.60;;;;;;;;;;5012203;28;20133;-71
2023/07/24 12:16:18;;;;;;;5.15;1.58;;;;;;;;;;5009827;28;20681;-71
2023/07/24 12:18:43;;;;;;;4.30;1.73;;;;;;;;;;5010815;28;20041;-71
2023/07/24 12:21:09;;;;;;;5.90;1.67;;;;;;;;;;5013120;28;20030;-71
2023/07/24 12:23:34;;;;;;;4.78;1.80;;;;;;;;;;5010303;28;20437;-71
2023/07/24 12:25:59;;;;;;;6.10;1.87;;;;;;;;;;5011629;28;20014;-71
2023/07/24 12:28:24;;;;;;;3.33;1.73;;;;;;;;;;5009918;28;20553;-70
2023/07/24 12:30:49;;;;;;;4.03;1.60;;;;;;;;;;5010869;28;20038;-71
2023/07/24 12:33:14;;;;;;;3.55;1.40;;;;;;;;;;5010586;28;20041;-70
2023/07/24 12:35:39;;;;;;;2.33;1.03;;;;;;;;;;5011210;28;20057;-71
2023/07/24 12:38:05;;;;;;;3.60;1.47;;;;;;;;;;5010977;28;20034;-70
2023/07/24 12:40:30;;;;;;;4.53;1.92;;;;;;;;;;5010583;28;20273;-71
2023/07/24 12:42:55;;;;;;;6.03;1.70;;;;;;;;;;5006120;28;20071;-70
2023/07/24 12:45:20;;;;;;;4.17;1.40;;;;;;;;;;5007748;28;20021;-70
2023/07/24 12:47:46;;;;;;;2.50;1.55;;;;;;;;;;5006864;28;20045;-71
2023/07/24 12:50:11;;;;;;;5.20;1.83;;;;;;;;;;5007396;28;20462;-70
2023/07/24 12:52:36;;;;;;;3.17;1.60;;;;;;;;;;5005743;28;20049;-71
2023/07/24 12:55:02;;;;;;;2.80;1.07;;;;;;;;;;5011163;28;20101;-69
2023/07/24 12:57:27;;;;;;;3.03;1.42;;;;;;;;;;5011467;28;20018;-71
2023/07/24 12:59:52;;;;;;;2.45;1.25;;;;;;;;;;5008083;28;20426;-71
2023/07/24 13:02:18;;;;;;;3.55;1.40;;;;;;;;;;5007677;28;20084;-71
2023/07/24 13:04:43;;;;;;;4.17;1.23;;;;;;;;;;5012491;28;20025;-70
2023/07/24 13:07:08;;;;;;;5.78;1.80;;;;;;;;;;5011065;28;20423;-71
2023/07/24 13:09:33;;;;;;;5.50;1.83;;;;;;;;;;4991209;28;20025;-71
2023/07/24 13:11:58;;;;;;;16.07;1.70;;;;;;;;;;5010693;28;20257;-70
2023/07/24 13:14:23;;;;;;;4.83;1.30;;;;;;;;;;5008232;28;20287;-71
2023/07/24 13:16:49;;;;;;;3.27;1.60;;;;;;;;;;5016250;28;20033;-71
2023/07/24 13:19:14;;;;;;;4.15;1.60;;;;;;;;;;5010735;28;20277;-71
2023/07/24 13:21:40;;;;;;;3.47;1.48;;;;;;;;;;5015242;28;20021;-70
2023/07/24 13:24:05;;;;;;;3.97;1.30;;;;;;;;;;5008518;28;20021;-71
2023/07/24 13:26:30;;;;;;;2.67;1.60;;;;;;;;;;5005969;28;20272;-71
2023/07/24 13:28:56;;;;;;;2.27;1.23;;;;;;;;;;5012107;28;20132;-70
2023/07/24 13:31:22;;;;;;;2.90;1.33;;;;;;;;;;5009910;28;20269;-71
2023/07/24 13:33:47;;;;;;;2.33;1.48;;;;;;;;;;5004260;28;20288;-71
2023/07/24 13:36:12;;;;;;;2.80;1.33;;;;;;;;;;5003295;28;20022;-71
2023/07/24 13:38:38;;;;;;;3.50;1.33;;;;;;;;;;5007787;28;20017;-71
2023/07/24 13:41:04;;;;;;;2.07;1.10;;;;;;;;;;5009283;28;20335;-71
2023/07/24 13:43:29;;;;;;;3.10;1.40;;;;;;;;;;5011578;28;20252;-72
2023/07/24 13:45:54;;;;;;;3.42;1.50;;;;;;;;;;5006719;28;20045;-71
2023/07/24 13:48:20;;;;;;;2.95;1.67;;;;;;;;;;5006959;28;20026;-72
2023/07/24 13:50:45;;;;;;;3.58;1.40;;;;;;;;;;5009077;28;20026;-71
2023/07/24 13:53:11;;;;;;;2.92;1.25;;;;;;;;;;5011406;28;20018;-71
2023/07/24 13:55:37;;;;;;;3.63;1.45;;;;;;;;;;5011503;28;20036;-71
2023/07/24 13:58:02;;;;;;;2.70;1.60;;;;;;;;;;5008607;28;20029;-71
2023/07/24 14:00:27;;;;;;;2.67;1.55;;;;;;;;;;5010138;28;20048;-71
2023/07/24 14:02:52;;;;;;;2.70;1.40;;;;;;;;;;5011304;28;20020;-71
2023/07/24 14:05:17;;;;;;;3.03;1.50;;;;;;;;;;5010658;28;20092;-71
2023/07/24 14:07:44;;;;;;;2.63;1.37;;;;;;;;;;5008624;28;20054;-71
2023/07/24 14:10:09;;;;;;;3.17;1.38;;;;;;;;;;5007692;28;20777;-71
2023/07/24 14:12:34;;;;;;;4.70;1.60;;;;;;;;;;5010265;28;20032;-71
2023/07/24 14:14:59;;;;;;;2.50;1.40;;;;;;;;;;5009154;28;20026;-71
2023/07/24 14:17:24;;;;;;;3.23;1.53;;;;;;;;;;5010621;28;20265;-71
2023/07/24 14:19:50;;;;;;;2.00;1.30;;;;;;;;;;5009470;28;20598;-70
2023/07/24 14:22:15;;;;;;;5.50;1.67;;;;;;;;;;5008635;28;20030;-71
2023/07/24 14:24:40;;;;;;;3.53;1.70;;;;;;;;;;5009949;28;20285;-71
2023/07/24 14:27:06;;;;;;;4.47;1.30;;;;;;;;;;5010135;28;20018;-71
2023/07/24 14:29:31;;;;;;;3.42;1.73;;;;;;;;;;5006978;28;20018;-72
2023/07/24 14:31:56;;;;;;;2.57;1.43;;;;;;;;;;5008005;28;20077;-72